Time;durP1;ratioP1;P1;durP2;ratioP2;P2;SDS_P1;SDS_P2;PMS_P1;PMS_P2;Temp;Humidity;BMP_temperature;BMP_pressure;BME280_temperature;BME280_humidity;BME280_pressure;Samples;Min_cycle;Max_cycle;Signal;HPM_P1;HPM_P2
2022/06/05 00:00:17;;;;;;;;;;;;;;;23.40;80.78;97044.59;594452;235;64945;-68
2022/06/05 00:03:01;;;;;;;;;;;;;;;23.40;80.66;97042.70;594747;236;63067;-68
2022/06/05 00:05:30;;;;;;;;;;;;;;;23.41;80.63;97046.20;595125;232;65503;-68
2022/06/05 00:08:14;;;;;;;;;;;;;;;23.40;80.61;97033.86;600609;236;65378;-69
2022/06/05 00:10:46;;;;;;;;;;;;;;;23.38;80.59;97034.16;601861;236;65450;-68
2022/06/05 00:13:15;;;;;;;;;;;;;;;23.40;80.67;97044.59;597871;236;63115;-68
2022/06/05 00:15:42;;;;;;;;;;;;;;;23.38;80.65;97042.21;594607;236;64974;-68
2022/06/05 00:18:11;;;;;;;;;;;;;;;23.39;80.69;97037.64;594700;235;65324;-68
2022/06/05 00:20:40;;;;;;;;;;;;;;;23.39;80.61;97037.64;594602;236;65287;-68
2022/06/05 00:23:08;;;;;;;;;;;;;;;23.39;80.60;97034.95;594562;235;62999;-68
2022/06/05 00:25:55;;;;;;;;;;;;;;;23.39;80.50;97033.07;594911;236;65407;-68
2022/06/05 00:28:24;;;;;;;;;;;;;;;23.38;80.58;97036.84;594565;236;63085;-68
2022/06/05 00:30:59;;;;;;;;;;;;;;;23.39;80.52;97024.23;591643;236;62786;-68
2022/06/05 00:33:34;;;;;;;;;;;;;;;23.38;80.53;97023.44;595694;235;65189;-68
2022/06/05 00:36:12;;;;;;;;;;;;;;;23.38;80.53;97026.13;594892;236;65586;-68
2022/06/05 00:38:56;;;;;;;;;;;;;;;23.39;80.47;97025.02;594439;236;63251;-68
2022/06/05 00:41:38;;;;;;;;;;;;;;;23.39;80.51;97026.91;601179;235;65405;-68
2022/06/05 00:44:06;;;;;;;;;;;;;;;23.38;80.63;97028.80;594739;235;65536;-68
2022/06/05 00:46:34;;;;;;;;;;;;;;;23.38;80.71;97036.84;594497;235;65155;-68
2022/06/05 00:49:01;;;;;;;;;;;;;;;23.39;80.69;97037.64;594437;235;65175;-72
2022/06/05 00:51:29;;;;;;;;;;;;;;;23.38;80.76;97027.98;596822;235;65663;-72
2022/06/05 00:53:56;;;;;;;;;;;;;;;23.38;80.80;97031.48;603705;235;64975;-72
2022/06/05 00:56:24;;;;;;;;;;;;;;;23.39;80.81;97029.59;603783;235;65351;-72
2022/06/05 00:58:52;;;;;;;;;;;;;;;23.39;80.86;97035.75;599050;235;65251;-72
2022/06/05 01:01:21;;;;;;;;;;;;;;;23.38;80.79;97031.48;595462;235;64897;-72
2022/06/05 01:03:49;;;;;;;;;;;;;;;23.39;80.78;97034.95;594494;235;62991;-71
2022/06/05 01:06:16;;;;;;;;;;;;;;;23.40;80.84;97041.91;602080;235;63318;-72
2022/06/05 01:08:44;;;;;;;;;;;;;;;23.38;80.71;97039.53;594801;236;64923;-72
2022/06/05 01:11:29;;;;;;;;;;;;;;;23.39;80.78;97029.59;599079;235;65252;-72
2022/06/05 01:14:01;;;;;;;;;;;;;;;23.39;80.75;97037.64;594936;235;63056;-71
2022/06/05 01:16:36;;;;;;;;;;;;;;;23.39;80.72;97046.48;595051;235;64973;-72
2022/06/05 01:19:14;;;;;;;;;;;;;;;23.39;80.71;97041.11;591442;235;65166;-73
2022/06/05 01:21:46;;;;;;;;;;;;;;;23.38;80.76;97031.48;576906;245;63097;-73
2022/06/05 01:24:32;;;;;;;;;;;;;;;23.38;80.86;97034.16;599832;235;65081;-73
2022/06/05 01:27:01;;;;;;;;;;;;;;;23.38;80.80;97041.39;594505;235;63272;-73
2022/06/05 01:29:30;;;;;;;;;;;;;;;23.39;80.79;97040.32;595305;235;65470;-74
2022/06/05 01:31:59;;;;;;;;;;;;;;;23.39;80.77;97043.80;594348;235;62912;-72
2022/06/05 01:34:31;;;;;;;;;;;;;;;23.38;80.82;97039.53;596032;233;63062;-73
2022/06/05 01:36:59;;;;;;;;;;;;;;;23.38;80.82;97039.53;599216;235;65735;-73
2022/06/05 01:39:37;;;;;;;;;;;;;;;23.38;80.78;97036.84;594669;238;65292;-73
2022/06/05 01:42:07;;;;;;;;;;;;;;;23.38;80.84;97041.39;600662;235;63027;-72
2022/06/05 01:44:35;;;;;;;;;;;;;;;23.38;80.92;97039.53;601630;235;63118;-72
2022/06/05 01:47:08;;;;;;;;;;;;;;;23.38;80.98;97038.70;595135;236;64898;-72
2022/06/05 01:49:49;;;;;;;;;;;;;;;23.37;81.02;97035.23;594413;235;65380;-72
2022/06/05 01:52:18;;;;;;;;;;;;;;;23.38;80.96;97034.16;597962;236;63951;-71
2022/06/05 01:55:04;;;;;;;;;;;;;;;23.38;80.91;97027.98;597417;236;63280;-73
2022/06/05 01:57:31;;;;;;;;;;;;;;;23.38;80.90;97027.98;600893;236;65467;-72
2022/06/05 02:00:06;;;;;;;;;;;;;;;23.38;80.91;97027.98;601129;235;65518;-72
2022/06/05 02:02:36;;;;;;;;;;;;;;;23.38;80.87;97027.98;595005;235;45445;-72
2022/06/05 02:05:08;;;;;;;;;;;;;;;23.37;80.82;97019.14;594685;235;65309;-71
2022/06/05 02:07:37;;;;;;;;;;;;;;;23.38;80.91;97025.30;594189;235;65546;-72
2022/06/05 02:10:09;;;;;;;;;;;;;;;23.38;80.92;97019.94;594456;237;65451;-72
2022/06/05 02:12:37;;;;;;;;;;;;;;;23.38;80.93;97027.98;594583;238;65551;-72
2022/06/05 02:15:05;;;;;;;;;;;;;;;23.38;80.98;97030.66;594629;236;64983;-72
2022/06/05 02:17:33;;;;;;;;;;;;;;;23.38;81.04;97026.13;594908;236;64748;-72
2022/06/05 02:20:01;;;;;;;;;;;;;;;23.38;80.96;97022.62;594671;236;65353;-72
2022/06/05 02:22:30;;;;;;;;;;;;;;;23.38;80.97;97027.98;595067;235;65696;-72
2022/06/05 02:24:57;;;;;;;;;;;;;;;23.38;80.96;97036.84;601829;234;65051;-71
2022/06/05 02:27:26;;;;;;;;;;;;;;;23.38;80.97;97036.84;594396;235;63091;-72
2022/06/05 02:29:54;;;;;;;;;;;;;;;23.37;81.00;97037.91;594490;235;63300;-72
2022/06/05 02:32:23;;;;;;;;;;;;;;;23.37;80.92;97043.28;600100;235;62684;-72
2022/06/05 02:35:01;;;;;;;;;;;;;;;23.39;80.80;97040.32;603703;235;63043;-72
2022/06/05 02:37:36;;;;;;;;;;;;;;;23.38;80.81;97046.75;603548;234;65488;-72
2022/06/05 02:40:14;;;;;;;;;;;;;;;23.38;80.89;97044.07;594310;235;64844;-72
2022/06/05 02:42:43;;;;;;;;;;;;;;;23.37;80.91;97045.17;594473;235;63076;-72
2022/06/05 02:45:16;;;;;;;;;;;;;;;23.38;81.05;97054.80;593576;235;63075;-72
2022/06/05 02:47:57;;;;;;;;;;;;;;;23.38;81.01;97052.11;594609;235;63099;-72
2022/06/05 02:50:26;;;;;;;;;;;;;;;23.37;81.03;97048.64;600944;235;63061;-72
2022/06/05 02:52:55;;;;;;;;;;;;;;;23.38;81.10;97044.07;594496;235;65503;-68
2022/06/05 02:55:22;;;;;;;;;;;;;;;23.37;81.10;97047.84;595430;235;65030;-68
2022/06/05 02:57:50;;;;;;;;;;;;;;;23.37;81.02;97042.48;594464;235;63277;-68
2022/06/05 03:00:19;;;;;;;;;;;;;;;23.36;80.96;97044.37;594416;235;63080;-68
2022/06/05 03:05:33;;;;;;;;;;;;;;;23.38;81.06;97033.34;594702;235;65545;-72
2022/06/05 03:08:00;;;;;;;;;;;;;;;23.37;81.12;97047.84;594870;238;65528;-72
2022/06/05 03:10:28;;;;;;;;;;;;;;;23.37;81.02;97035.23;594837;238;65490;-72
2022/06/05 03:12:55;;;;;;;;;;;;;;;23.37;81.05;97037.13;601104;236;62991;-72
2022/06/05 03:15:23;;;;;;;;;;;;;;;23.36;81.09;97044.37;600277;235;63290;-72
2022/06/05 03:17:50;;;;;;;;;;;;;;;23.37;81.03;97039.80;599646;235;62943;-72
2022/06/05 03:20:18;;;;;;;;;;;;;;;23.37;80.97;97042.48;597596;236;63090;-72
2022/06/05 03:22:46;;;;;;;;;;;;;;;23.37;80.99;97037.13;597532;236;63960;-72
2022/06/05 03:25:18;;;;;;;;;;;;;;;23.37;80.97;97037.13;597559;236;63627;-72
2022/06/05 03:27:46;;;;;;;;;;;;;;;23.37;80.93;97037.13;602418;234;65170;-72
2022/06/05 03:30:15;;;;;;;;;;;;;;;23.37;80.93;97037.13;603617;235;64873;-72
2022/06/05 03:32:43;;;;;;;;;;;;;;;23.38;80.91;97033.34;601767;235;62694;-72
2022/06/05 03:35:11;;;;;;;;;;;;;;;23.37;80.97;97039.80;599895;235;63274;-68
2022/06/05 03:37:39;;;;;;;;;;;;;;;23.37;81.00;97039.80;594391;236;65492;-69
2022/06/05 03:40:11;;;;;;;;;;;;;;;23.37;81.12;97031.76;595604;235;64771;-68
2022/06/05 03:42:39;;;;;;;;;;;;;;;23.38;81.07;97027.98;594772;235;63071;-68
2022/06/05 03:45:08;;;;;;;;;;;;;;;23.37;81.14;97032.55;601080;235;62696;-68
2022/06/05 03:47:35;;;;;;;;;;;;;;;23.37;81.14;97031.76;601749;236;62735;-68
2022/06/05 03:50:03;;;;;;;;;;;;;;;23.36;81.05;97022.92;601816;236;65434;-68
2022/06/05 03:52:30;;;;;;;;;;;;;;;23.37;81.09;97021.03;599837;236;65497;-68
2022/06/05 03:54:58;;;;;;;;;;;;;;;23.36;81.16;97022.13;594677;236;65236;-68
2022/06/05 03:57:25;;;;;;;;;;;;;;;23.37;81.11;97026.39;594466;235;65215;-68
2022/06/05 03:59:53;;;;;;;;;;;;;;;23.36;81.07;97020.23;594713;235;65221;-68
2022/06/05 04:02:21;;;;;;;;;;;;;;;23.36;81.08;97033.64;596113;235;65343;-68
2022/06/05 04:04:48;;;;;;;;;;;;;;;23.36;81.06;97027.48;601795;236;65186;-68
2022/06/05 04:07:17;;;;;;;;;;;;;;;23.35;81.08;97015.94;601802;236;65531;-68
2022/06/05 04:09:44;;;;;;;;;;;;;;;23.36;81.08;97016.77;598647;236;65035;-72
2022/06/05 04:12:12;;;;;;;;;;;;;;;23.37;81.08;97023.71;596087;236;65055;-72
2022/06/05 04:14:39;;;;;;;;;;;;;;;23.36;81.10;97019.45;594942;235;65616;-72
2022/06/05 04:17:07;;;;;;;;;;;;;;;23.36;81.09;97024.81;594489;235;64723;-72
2022/06/05 04:19:34;;;;;;;;;;;;;;;23.36;81.10;97033.64;597017;235;66263;-68
2022/06/05 04:22:02;;;;;;;;;;;;;;;23.36;81.11;97027.48;598740;235;65541;-68
2022/06/05 04:24:29;;;;;;;;;;;;;;;23.36;81.17;97025.60;595297;235;66457;-68
2022/06/05 04:26:57;;;;;;;;;;;;;;;23.36;81.19;97032.85;594498;235;65176;-68
2022/06/05 04:29:25;;;;;;;;;;;;;;;23.36;81.18;97030.17;594457;235;63131;-68
2022/06/05 04:31:52;;;;;;;;;;;;;;;23.36;81.16;97030.97;594455;235;65239;-68
2022/06/05 04:34:21;;;;;;;;;;;;;;;23.36;81.12;97027.48;594448;235;63100;-68
2022/06/05 04:36:49;;;;;;;;;;;;;;;23.36;81.08;97027.48;601347;235;65451;-68
2022/06/05 04:39:17;;;;;;;;;;;;;;;23.35;81.05;97015.94;603756;235;64993;-68
2022/06/05 04:41:45;;;;;;;;;;;;;;;23.35;81.06;97017.83;603735;235;63081;-68
2022/06/05 04:44:14;;;;;;;;;;;;;;;23.36;81.12;97022.13;601837;235;65383;-68
2022/06/05 04:46:42;;;;;;;;;;;;;;;23.36;81.06;97027.48;594492;232;65051;-68
2022/06/05 04:49:10;;;;;;;;;;;;;;;23.35;81.10;97032.03;594713;235;62991;-68
2022/06/05 04:51:39;;;;;;;;;;;;;;;23.36;81.16;97032.85;594556;236;65733;-68
2022/06/05 04:54:07;;;;;;;;;;;;;;;23.36;81.17;97036.33;594861;235;64976;-68
2022/06/05 04:56:35;;;;;;;;;;;;;;;23.36;81.18;97035.53;594884;236;65403;-68
2022/06/05 04:59:04;;;;;;;;;;;;;;;23.35;81.20;97040.08;598864;235;65544;-68
2022/06/05 05:01:33;;;;;;;;;;;;;;;23.34;81.18;97030.44;603726;235;65037;-68
2022/06/05 05:04:02;;;;;;;;;;;;;;;23.35;81.22;97028.55;603675;235;65385;-68
2022/06/05 05:06:30;;;;;;;;;;;;;;;23.35;81.15;97031.23;602124;235;65364;-68
2022/06/05 05:08:58;;;;;;;;;;;;;;;23.35;81.22;97026.66;600892;233;63866;-68
2022/06/05 05:11:26;;;;;;;;;;;;;;;23.35;81.18;97034.71;594539;235;63336;-68
2022/06/05 05:13:55;;;;;;;;;;;;;;;23.35;81.29;97031.23;594487;235;63197;-68
2022/06/05 05:16:23;;;;;;;;;;;;;;;23.35;81.23;97023.98;594293;235;62982;-68
2022/06/05 05:18:50;;;;;;;;;;;;;;;23.36;81.34;97022.13;594506;235;63269;-68
2022/06/05 05:21:19;;;;;;;;;;;;;;;23.34;81.31;97017.03;594493;235;63073;-68
2022/06/05 05:23:48;;;;;;;;;;;;;;;23.34;81.41;97021.61;594615;235;65032;-68
2022/06/05 05:26:17;;;;;;;;;;;;;;;23.35;81.64;97034.71;594882;236;65266;-68
2022/06/05 05:28:45;;;;;;;;;;;;;;;23.35;81.72;97033.92;594514;236;63155;-68
2022/06/05 05:31:14;;;;;;;;;;;;;;;23.34;81.45;97033.12;594525;235;64823;-68
2022/06/05 05:33:42;;;;;;;;;;;;;;;23.35;81.38;97039.28;594872;235;65334;-68
2022/06/05 05:36:10;;;;;;;;;;;;;;;23.35;81.29;97033.92;594628;235;65610;-68
2022/06/05 05:42:04;;;;;;;;;;;;;;;23.35;81.37;97033.92;594488;235;65718;-68
2022/06/05 05:43:53;;;;;;;;;;;;;;;23.34;81.43;97032.33;594494;234;63563;-68
2022/06/05 05:46:20;;;;;;;;;;;;;;;23.34;81.45;97032.33;594824;238;65236;-68
2022/06/05 05:48:48;;;;;;;;;;;;;;;23.33;81.50;97041.47;599768;236;65288;-68
2022/06/05 05:51:16;;;;;;;;;;;;;;;23.34;81.43;97045.73;601797;236;63072;-68
2022/06/05 05:53:43;;;;;;;;;;;;;;;23.34;81.36;97041.17;601741;236;63048;-68
2022/06/05 05:56:12;;;;;;;;;;;;;;;23.34;81.43;97040.38;590635;235;63198;-68
2022/06/05 05:58:40;;;;;;;;;;;;;;;23.34;81.55;97043.06;594585;235;62752;-68
2022/06/05 06:01:10;;;;;;;;;;;;;;;23.34;81.37;97043.06;599160;235;65198;-68
2022/06/05 06:03:37;;;;;;;;;;;;;;;23.34;81.38;97040.38;596530;235;63009;-68
2022/06/05 06:06:05;;;;;;;;;;;;;;;23.34;81.50;97040.38;594426;235;65754;-68
2022/06/05 06:08:33;;;;;;;;;;;;;;;23.33;81.58;97036.91;594490;235;65035;-68
2022/06/05 06:11:00;;;;;;;;;;;;;;;23.33;83.45;97030.75;594489;235;65616;-68
2022/06/05 06:13:29;;;;;;;;;;;;;;;23.32;81.92;97034.49;594507;235;65444;-68
2022/06/05 06:15:56;;;;;;;;;;;;;;;23.33;80.95;97036.91;594403;235;62913;-68
2022/06/05 06:18:24;;;;;;;;;;;;;;;23.35;80.94;97052.69;594460;235;65176;-68
2022/06/05 06:20:51;;;;;;;;;;;;;;;23.36;80.97;97040.90;594504;235;65492;-68
2022/06/05 06:23:19;;;;;;;;;;;;;;;23.36;81.11;97040.90;594451;235;65054;-68
2022/06/05 06:25:46;;;;;;;;;;;;;;;23.36;81.33;97036.33;594527;235;65362;-68
2022/06/05 06:28:14;;;;;;;;;;;;;;;23.37;81.53;97029.87;594400;235;65539;-68
2022/06/05 06:30:41;;;;;;;;;;;;;;;23.37;81.84;97031.76;594494;235;64955;-68
2022/06/05 06:33:09;;;;;;;;;;;;;;;23.37;82.21;97029.87;594491;235;63106;-72
2022/06/05 06:35:36;;;;;;;;;;;;;;;23.38;82.38;97027.98;595293;235;63078;-72
2022/06/05 06:38:04;;;;;;;;;;;;;;;23.37;82.47;97018.34;594500;235;65029;-72
2022/06/05 06:40:34;;;;;;;;;;;;;;;23.38;82.76;97025.30;594500;235;65399;-72
2022/06/05 06:43:02;;;;;;;;;;;;;;;23.37;82.77;97019.14;597679;236;63426;-72
2022/06/05 06:45:29;;;;;;;;;;;;;;;23.38;83.00;97020.76;596771;236;64792;-72
2022/06/05 06:47:57;;;;;;;;;;;;;;;23.37;82.79;97029.87;594445;235;65364;-72
2022/06/05 06:50:24;;;;;;;;;;;;;;;23.38;82.76;97033.34;594535;235;65288;-72
2022/06/05 06:52:52;;;;;;;;;;;;;;;23.39;83.01;97038.44;598412;235;65327;-72
2022/06/05 06:55:20;;;;;;;;;;;;;;;23.39;83.16;97033.07;602809;235;62938;-72
2022/06/05 06:57:49;;;;;;;;;;;;;;;23.39;83.18;97033.07;601797;235;65497;-72
2022/06/05 07:00:18;;;;;;;;;;;;;;;23.40;83.21;97036.55;597406;236;62954;-72
2022/06/05 07:02:45;;;;;;;;;;;;;;;23.39;83.26;97030.39;594590;236;65400;-72
2022/06/05 07:05:14;;;;;;;;;;;;;;;23.40;83.28;97037.34;594502;235;65500;-72
2022/06/05 07:07:41;;;;;;;;;;;;;;;23.40;83.35;97028.50;594480;235;65257;-72
2022/06/05 07:10:09;;;;;;;;;;;;;;;23.41;83.25;97038.16;595015;235;65493;-72
2022/06/05 07:12:36;;;;;;;;;;;;;;;23.41;83.44;97032.80;594550;235;65000;-72
2022/06/05 07:15:05;;;;;;;;;;;;;;;23.41;83.36;97030.12;595175;235;66112;-72
2022/06/05 07:17:32;;;;;;;;;;;;;;;23.42;83.25;97031.70;600834;235;65580;-68
2022/06/05 07:20:00;;;;;;;;;;;;;;;23.41;83.44;97030.91;594486;235;65749;-68
2022/06/05 07:22:27;;;;;;;;;;;;;;;23.41;83.21;97040.84;594451;235;66159;-68
2022/06/05 07:24:55;;;;;;;;;;;;;;;23.41;83.34;97030.12;594454;235;65552;-68
2022/06/05 07:27:23;;;;;;;;;;;;;;;23.42;83.32;97034.38;594499;235;65457;-68
2022/06/05 07:29:51;;;;;;;;;;;;;;;23.42;83.28;97029.81;594679;235;62986;-68
2022/06/05 07:32:20;;;;;;;;;;;;;;;23.42;83.31;97034.38;594649;236;63045;-68
2022/06/05 07:34:48;;;;;;;;;;;;;;;23.43;83.22;97035.97;591685;235;65182;-68
2022/06/05 07:37:16;;;;;;;;;;;;;;;23.43;83.21;97041.33;594427;238;64765;-68
2022/06/05 07:39:44;;;;;;;;;;;;;;;23.43;83.20;97041.33;594547;238;65462;-68
2022/06/05 07:42:12;;;;;;;;;;;;;;;23.43;83.24;97028.72;594658;238;64869;-68
2022/06/05 07:44:39;;;;;;;;;;;;;;;23.42;83.12;97031.70;594740;238;64970;-68
2022/06/05 07:47:08;;;;;;;;;;;;;;;23.42;83.16;97029.02;594752;236;65474;-68
2022/06/05 07:49:37;;;;;;;;;;;;;;;23.44;83.12;97032.22;594542;235;63514;-68
2022/06/05 07:54:50;;;;;;;;;;;;;;;23.44;83.09;97038.38;594687;236;63995;-67
2022/06/05 07:57:18;;;;;;;;;;;;;;;23.44;82.91;97040.27;594632;235;65110;-67
2022/06/05 07:59:47;;;;;;;;;;;;;;;23.44;83.07;97042.95;594458;232;62681;-68
2022/06/05 08:02:19;;;;;;;;;;;;;;;23.44;83.06;97032.22;594483;235;65498;-68
2022/06/05 08:04:48;;;;;;;;;;;;;;;23.44;83.14;97053.67;594476;235;63312;-68
2022/06/05 08:07:17;;;;;;;;;;;;;;;23.44;83.24;97034.91;594436;235;65677;-68
2022/06/05 08:09:45;;;;;;;;;;;;;;;23.43;83.11;97031.40;594443;235;65458;-68
2022/06/05 08:12:13;;;;;;;;;;;;;;;23.43;83.11;97028.72;594555;232;65570;-68
2022/06/05 08:14:42;;;;;;;;;;;;;;;23.44;83.02;97029.54;594606;236;64962;-68
2022/06/05 08:17:11;;;;;;;;;;;;;;;23.45;82.98;97028.45;594642;235;63205;-68
2022/06/05 08:19:40;;;;;;;;;;;;;;;23.45;82.96;97033.81;594449;235;63325;-68
2022/06/05 08:22:12;;;;;;;;;;;;;;;23.45;82.97;97023.08;594359;235;65030;-68
2022/06/05 08:24:39;;;;;;;;;;;;;;;23.46;83.11;97016.62;594498;235;64096;-68
2022/06/05 08:27:10;;;;;;;;;;;;;;;23.45;83.13;97026.55;597756;236;65307;-68
2022/06/05 08:29:38;;;;;;;;;;;;;;;23.45;83.09;97023.88;597080;235;64932;-68
2022/06/05 08:32:06;;;;;;;;;;;;;;;23.46;83.08;97024.66;594432;235;65218;-68
2022/06/05 08:34:33;;;;;;;;;;;;;;;23.46;83.16;97016.62;594635;236;64159;-68
2022/06/05 08:42:36;;;;;;;;;;;;;;;23.47;83.14;97010.19;596250;235;65573;-68
2022/06/05 08:45:11;;;;;;;;;;;;;;;23.46;83.20;97013.94;598598;234;64835;-68
2022/06/05 08:47:49;;;;;;;;;;;;;;;23.46;83.08;97009.40;594629;235;63113;-67
2022/06/05 08:50:35;;;;;;;;;;;;;;;23.45;83.18;97002.41;597075;235;63086;-68
2022/06/05 08:53:07;;;;;;;;;;;;;;;23.46;83.24;96997.84;601815;236;63278;-67
2022/06/05 08:55:39;;;;;;;;;;;;;;;23.46;83.39;96997.84;599240;235;65334;-68
2022/06/05 08:58:17;;;;;;;;;;;;;;;23.45;83.35;97005.09;594480;236;63302;-72
2022/06/05 09:00:46;;;;;;;;;;;;;;;23.45;83.31;97002.41;600098;235;65341;-72
2022/06/05 09:03:31;;;;;;;;;;;;;;;23.46;83.22;96997.84;601788;236;65265;-72
2022/06/05 09:06:00;;;;;;;;;;;;;;;23.46;83.24;97003.21;601787;236;66432;-72
2022/06/05 09:08:30;;;;;;;;;;;;;;;23.46;83.32;96995.16;599267;236;62900;-72
2022/06/05 09:11:04;;;;;;;;;;;;;;;23.46;83.24;96987.12;594544;235;65381;-73
2022/06/05 09:13:38;;;;;;;;;;;;;;;23.45;83.34;96990.90;594473;235;65764;-71
2022/06/05 09:16:07;;;;;;;;;;;;;;;23.46;83.43;96998.67;591089;235;64762;-68
2022/06/05 09:18:39;;;;;;;;;;;;;;;23.46;83.34;96998.67;594443;235;65275;-68
2022/06/05 09:21:23;;;;;;;;;;;;;;;23.47;83.41;96994.09;599228;235;65646;-68
2022/06/05 09:24:08;;;;;;;;;;;;;;;23.47;83.35;96999.46;595811;235;65507;-68
2022/06/05 09:26:42;;;;;;;;;;;;;;;23.47;83.36;96994.09;595747;235;65451;-69
2022/06/05 09:29:26;;;;;;;;;;;;;;;23.47;83.50;96994.09;595295;235;65508;-69
2022/06/05 09:32:04;;;;;;;;;;;;;;;23.46;83.43;96998.67;594810;236;65270;-68
2022/06/05 09:34:34;;;;;;;;;;;;;;;23.47;83.39;97004.83;596811;235;65311;-68
2022/06/05 09:37:19;;;;;;;;;;;;;;;23.47;83.46;97000.25;598857;235;65567;-68
2022/06/05 09:39:48;;;;;;;;;;;;;;;23.47;83.44;96994.89;594487;233;63812;-68
2022/06/05 09:42:20;;;;;;;;;;;;;;;23.48;83.48;96993.00;594327;235;63046;-68
2022/06/05 09:45:08;;;;;;;;;;;;;;;23.47;83.42;96996.78;594366;235;65296;-68
2022/06/05 09:47:37;;;;;;;;;;;;;;;23.46;83.40;96984.44;594277;235;65202;-70
2022/06/05 09:50:06;;;;;;;;;;;;;;;23.47;83.38;96999.46;595692;233;65360;-70
2022/06/05 09:52:34;;;;;;;;;;;;;;;23.48;83.47;96993.00;600718;234;63212;-67
2022/06/05 09:55:05;;;;;;;;;;;;;;;23.47;83.17;96994.89;597372;236;65033;-67
2022/06/05 10:00:27;;;;;;;;;;;;;;;23.48;83.43;96996.47;601835;236;63328;-67
2022/06/05 10:02:56;;;;;;;;;;;;;;;23.47;83.40;96986.84;594911;236;64023;-67
2022/06/05 10:05:28;;;;;;;;;;;;;;;23.48;83.47;96990.31;592515;235;65445;-67
2022/06/05 10:07:57;;;;;;;;;;;;;;;23.48;83.48;96987.64;599503;235;63060;-69
2022/06/05 10:10:26;;;;;;;;;;;;;;;23.48;83.46;96990.31;598237;234;63828;-69
2022/06/05 10:13:01;;;;;;;;;;;;;;;23.47;83.44;96986.05;594842;232;63112;-68
2022/06/05 10:15:46;;;;;;;;;;;;;;;23.49;83.48;96986.57;594666;236;65515;-68
2022/06/05 10:18:18;;;;;;;;;;;;;;;23.48;83.44;96990.31;595251;235;62986;-68
2022/06/05 10:20:59;;;;;;;;;;;;;;;23.48;83.38;96979.59;600335;235;63197;-68
2022/06/05 10:23:28;;;;;;;;;;;;;;;23.49;83.43;96973.16;599806;235;63110;-68
2022/06/05 10:25:57;;;;;;;;;;;;;;;23.48;83.34;96969.66;597874;235;65045;-68
2022/06/05 10:28:26;;;;;;;;;;;;;;;23.48;83.29;96972.34;597090;235;65299;-68
2022/06/05 10:30:55;;;;;;;;;;;;;;;23.48;83.31;96980.38;594735;235;63039;-68
2022/06/05 10:33:25;;;;;;;;;;;;;;;23.49;83.32;96965.91;601629;234;65147;-67
2022/06/05 10:35:54;;;;;;;;;;;;;;;23.49;83.21;96970.48;601780;236;65683;-68
2022/06/05 10:38:35;;;;;;;;;;;;;;;23.50;83.14;96961.33;601300;235;65546;-68
2022/06/05 10:41:19;;;;;;;;;;;;;;;23.49;83.06;96960.54;597320;235;65602;-69
2022/06/05 10:43:53;;;;;;;;;;;;;;;23.50;83.00;96964.02;594826;235;47337;-70
2022/06/05 10:46:25;;;;;;;;;;;;;;;23.49;82.98;96963.22;588981;238;65502;-70
2022/06/05 10:48:59;;;;;;;;;;;;;;;23.49;83.00;96967.80;595577;235;62936;-70
2022/06/05 10:51:36;;;;;;;;;;;;;;;23.50;83.05;96966.70;594580;236;65380;-69
2022/06/05 10:54:03;;;;;;;;;;;;;;;23.49;83.08;96955.17;594149;235;65500;-70
2022/06/05 10:56:38;;;;;;;;;;;;;;;23.50;83.14;96953.28;591040;236;63870;-69
2022/06/05 10:59:10;;;;;;;;;;;;;;;23.49;83.11;96952.49;594464;235;63015;-67
2022/06/05 11:01:42;;;;;;;;;;;;;;;23.50;82.96;96955.97;600042;236;65029;-68
2022/06/05 11:04:11;;;;;;;;;;;;;;;23.49;83.05;96955.17;595329;236;62946;-68
2022/06/05 11:06:43;;;;;;;;;;;;;;;23.50;83.03;96955.97;594274;235;65225;-68
2022/06/05 11:09:28;;;;;;;;;;;;;;;23.51;82.99;96946.03;594485;235;63093;-68
2022/06/05 11:14:50;;;;;;;;;;;;;;;23.51;83.01;96949.50;600740;234;65474;-68
2022/06/05 11:17:28;;;;;;;;;;;;;;;23.50;83.07;96950.61;596458;236;65465;-68
2022/06/05 11:19:57;;;;;;;;;;;;;;;23.51;83.01;96944.14;600727;236;62703;-68
2022/06/05 11:22:26;;;;;;;;;;;;;;;23.51;83.06;96935.30;601662;235;65438;-68
2022/06/05 11:24:54;;;;;;;;;;;;;;;23.50;83.06;96937.19;595265;236;65620;-68
2022/06/05 11:27:29;;;;;;;;;;;;;;;23.51;83.11;96929.94;594540;235;65283;-68
2022/06/05 11:30:05;;;;;;;;;;;;;;;23.51;83.09;96933.41;594840;235;63146;-68
2022/06/05 11:32:34;;;;;;;;;;;;;;;23.51;83.05;96925.37;594539;235;65486;-68
2022/06/05 11:35:15;;;;;;;;;;;;;;;23.50;83.01;96923.78;594717;235;65270;-68
2022/06/05 11:37:53;;;;;;;;;;;;;;;23.51;83.09;96924.57;594381;235;65182;-68
2022/06/05 11:40:22;;;;;;;;;;;;;;;23.51;83.09;96925.37;594398;235;63217;-68
2022/06/05 11:42:57;;;;;;;;;;;;;;;23.51;82.98;96925.37;594759;238;65220;-68
2022/06/05 11:45:41;;;;;;;;;;;;;;;23.51;82.98;96914.64;600230;236;66256;-67
2022/06/05 11:48:13;;;;;;;;;;;;;;;23.51;82.97;96917.32;601791;236;63030;-67
2022/06/05 11:50:48;;;;;;;;;;;;;;;23.51;83.07;96914.64;598806;235;62612;-68
2022/06/05 11:53:20;;;;;;;;;;;;;;;23.52;83.02;96916.25;594390;236;66262;-67
2022/06/05 11:55:58;;;;;;;;;;;;;;;23.52;82.86;96913.57;594768;235;63787;-67
2022/06/05 11:58:42;;;;;;;;;;;;;;;23.51;82.88;96911.16;600096;235;65270;-67
2022/06/05 12:01:11;;;;;;;;;;;;;;;23.52;82.80;96904.70;594642;236;65396;-67
2022/06/05 12:03:41;;;;;;;;;;;;;;;23.51;82.90;96906.59;594488;235;62753;-68
2022/06/05 12:06:22;;;;;;;;;;;;;;;23.51;82.90;96903.91;601751;235;62692;-68
2022/06/05 12:08:51;;;;;;;;;;;;;;;23.52;82.92;96905.52;594692;235;65752;-68
2022/06/05 12:11:24;;;;;;;;;;;;;;;23.52;82.93;96902.84;594344;236;64960;-68
2022/06/05 12:13:52;;;;;;;;;;;;;;;23.52;82.89;96910.88;593613;235;63003;-67
2022/06/05 12:16:33;;;;;;;;;;;;;;;23.53;82.86;96912.47;594787;236;63079;-68
2022/06/05 12:19:05;;;;;;;;;;;;;;;23.52;82.79;96913.57;594414;235;62733;-68
2022/06/05 12:21:37;;;;;;;;;;;;;;;23.53;82.79;96892.91;599965;235;64993;-68
2022/06/05 12:24:15;;;;;;;;;;;;;;;23.53;82.87;96893.70;595450;235;62994;-67
2022/06/05 12:26:47;;;;;;;;;;;;;;;23.52;82.81;96892.11;594414;235;65711;-69
2022/06/05 12:29:16;;;;;;;;;;;;;;;23.53;82.87;96885.65;594442;235;64840;-69
2022/06/05 12:31:45;;;;;;;;;;;;;;;23.53;82.79;96899.06;594535;235;65378;-66
2022/06/05 12:34:14;;;;;;;;;;;;;;;23.53;82.80;96888.33;599699;235;65504;-67
2022/06/05 12:36:43;;;;;;;;;;;;;;;23.53;82.75;96888.33;595145;235;64963;-67
2022/06/05 12:39:18;;;;;;;;;;;;;;;23.53;82.79;96885.65;594528;235;65420;-67
2022/06/05 12:41:50;;;;;;;;;;;;;;;23.54;82.82;96881.08;594509;235;63113;-67
2022/06/05 12:44:22;;;;;;;;;;;;;;;23.53;82.77;96888.33;593301;238;65229;-67
2022/06/05 12:46:54;;;;;;;;;;;;;;;23.54;82.77;96886.44;594486;238;65400;-67
2022/06/05 12:49:28;;;;;;;;;;;;;;;23.53;82.61;96885.65;594541;238;65507;-68
2022/06/05 12:51:57;;;;;;;;;;;;;;;23.54;82.69;96879.19;598692;236;63075;-67
2022/06/05 12:54:25;;;;;;;;;;;;;;;23.54;82.62;96875.70;595901;236;64115;-71
2022/06/05 12:56:54;;;;;;;;;;;;;;;23.53;82.69;96872.23;594135;235;63123;-71
2022/06/05 12:59:26;;;;;;;;;;;;;;;23.53;82.61;96882.97;595084;235;62973;-72
2022/06/05 13:01:57;;;;;;;;;;;;;;;23.54;82.63;96889.13;594516;235;63983;-72
2022/06/05 13:04:32;;;;;;;;;;;;;;;23.54;82.61;96873.81;588224;234;66754;-72
2022/06/05 13:07:01;;;;;;;;;;;;;;;23.54;82.65;96871.14;602999;234;64748;-71
2022/06/05 13:09:31;;;;;;;;;;;;;;;23.54;82.62;96873.81;596532;235;65381;-72
2022/06/05 13:12:06;;;;;;;;;;;;;;;23.55;82.68;96859.34;599134;235;65343;-72
2022/06/05 13:14:44;;;;;;;;;;;;;;;23.55;82.67;96866.59;594493;235;65428;-72
2022/06/05 13:17:29;;;;;;;;;;;;;;;23.55;82.75;96853.97;594300;235;65144;-73
2022/06/05 13:19:58;;;;;;;;;;;;;;;23.55;82.74;96853.19;594471;235;65478;-73
2022/06/05 13:22:27;;;;;;;;;;;;;;;23.55;82.68;96850.50;600585;235;65190;-73
2022/06/05 13:25:02;;;;;;;;;;;;;;;23.55;82.72;96850.50;603621;235;65347;-73